Time;durP1;ratioP1;P1;durP2;ratioP2;P2;SDS_P1;SDS_P2;PMS_P1;PMS_P2;Temp;Humidity;BMP_temperature;BMP_pressure;BME280_temperature;BME280_humidity;BME280_pressure;Samples;Min_cycle;Max_cycle;Signal;HPM_P1;HPM_P2
2022/03/29 00:01:30;;;;;;;9.88;8.63;;;;;;;;;;5037445;28;20206;-83
2022/03/29 00:03:59;;;;;;;9.05;8.05;;;;;;;;;;5037202;28;20630;-83
2022/03/29 00:06:26;;;;;;;11.93;9.30;;;;;;;;;;5036745;28;20210;-82
2022/03/29 00:08:53;;;;;;;10.75;8.52;;;;;;;;;;5036992;28;20218;-82
2022/03/29 00:11:20;;;;;;;10.93;8.13;;;;;;;;;;5036768;28;20202;-81
2022/03/29 00:13:48;;;;;;;11.23;8.32;;;;;;;;;;5037102;28;20592;-82
2022/03/29 00:16:15;;;;;;;10.90;9.02;;;;;;;;;;5036543;28;20202;-82
2022/03/29 00:18:42;;;;;;;9.27;7.85;;;;;;;;;;5036285;28;20226;-82
2022/03/29 00:21:12;;;;;;;9.82;8.82;;;;;;;;;;5036537;28;20211;-81
2022/03/29 00:23:39;;;;;;;10.20;8.77;;;;;;;;;;5035385;28;20573;-82
2022/03/29 00:26:06;;;;;;;10.80;7.75;;;;;;;;;;5035760;28;20202;-82
2022/03/29 00:28:34;;;;;;;8.90;7.55;;;;;;;;;;5035324;28;20227;-82
2022/03/29 00:31:01;;;;;;;9.10;7.55;;;;;;;;;;5034641;28;20198;-82
2022/03/29 00:33:28;;;;;;;9.25;8.00;;;;;;;;;;5035514;28;20447;-82
2022/03/29 00:35:55;;;;;;;10.05;7.55;;;;;;;;;;5035558;28;20202;-82
2022/03/29 00:38:24;;;;;;;8.57;7.68;;;;;;;;;;5035367;28;20230;-82
2022/03/29 00:40:51;;;;;;;10.60;8.35;;;;;;;;;;5035732;28;20206;-82
2022/03/29 00:43:19;;;;;;;7.68;6.97;;;;;;;;;;5035361;28;20206;-83
2022/03/29 00:45:46;;;;;;;7.82;6.78;;;;;;;;;;5035527;28;20209;-82
2022/03/29 00:48:13;;;;;;;12.10;7.95;;;;;;;;;;5035664;28;20265;-82
2022/03/29 00:50:42;;;;;;;8.52;7.13;;;;;;;;;;5035436;28;20195;-82
2022/03/29 00:53:10;;;;;;;9.40;6.97;;;;;;;;;;5034904;28;20598;-82
2022/03/29 00:55:41;;;;;;;10.80;8.15;;;;;;;;;;5035203;28;20669;-82
2022/03/29 00:58:08;;;;;;;9.95;8.95;;;;;;;;;;5034627;28;20801;-82
2022/03/29 01:00:36;;;;;;;10.77;8.02;;;;;;;;;;5035097;28;20694;-82
2022/03/29 01:03:04;;;;;;;9.13;7.97;;;;;;;;;;5034325;28;20307;-82
2022/03/29 01:05:32;;;;;;;13.27;9.02;;;;;;;;;;5034979;28;20206;-82
2022/03/29 01:08:00;;;;;;;10.20;8.60;;;;;;;;;;5034758;28;20748;-82
2022/03/29 01:10:29;;;;;;;8.23;7.40;;;;;;;;;;5034770;28;20224;-82
2022/03/29 01:12:57;;;;;;;10.43;8.50;;;;;;;;;;5034855;28;20198;-82
2022/03/29 01:15:28;;;;;;;12.13;8.82;;;;;;;;;;5034469;28;20202;-82
2022/03/29 01:17:54;;;;;;;10.10;8.73;;;;;;;;;;5034700;28;20632;-82
2022/03/29 01:20:27;;;;;;;12.70;9.80;;;;;;;;;;5034907;28;20321;-82
2022/03/29 01:22:58;;;;;;;10.88;9.77;;;;;;;;;;5034497;28;20237;-82
2022/03/29 01:25:27;;;;;;;12.73;9.90;;;;;;;;;;5034979;28;20659;-81
2022/03/29 01:27:55;;;;;;;11.95;8.98;;;;;;;;;;5034642;28;20202;-82
2022/03/29 01:30:23;;;;;;;12.48;11.18;;;;;;;;;;5034360;28;20225;-82
2022/03/29 01:32:52;;;;;;;11.70;10.52;;;;;;;;;;5034383;28;20194;-82
2022/03/29 01:35:22;;;;;;;10.85;9.80;;;;;;;;;;5034528;28;20210;-82
2022/03/29 01:37:50;;;;;;;12.48;11.23;;;;;;;;;;5034434;28;20760;-82
2022/03/29 01:40:21;;;;;;;16.95;11.48;;;;;;;;;;5034131;28;20226;-82
2022/03/29 01:42:50;;;;;;;13.80;11.88;;;;;;;;;;5034118;28;20210;-82
2022/03/29 01:45:19;;;;;;;13.02;10.85;;;;;;;;;;5034996;28;20202;-81
2022/03/29 01:47:47;;;;;;;12.60;11.10;;;;;;;;;;5034493;28;20202;-81
2022/03/29 01:50:14;;;;;;;14.93;11.60;;;;;;;;;;5034165;28;20631;-82
2022/03/29 01:52:45;;;;;;;13.13;11.38;;;;;;;;;;5034095;28;20965;-82
2022/03/29 01:55:13;;;;;;;13.48;11.82;;;;;;;;;;5035031;28;20225;-82
2022/03/29 01:57:42;;;;;;;12.68;11.38;;;;;;;;;;5034050;28;20304;-82
2022/03/29 02:02:57;;;;;;;12.93;11.52;;;;;;;;;;5034000;28;20450;-82
2022/03/29 02:05:25;;;;;;;13.10;11.68;;;;;;;;;;5034084;28;20194;-82
2022/03/29 02:07:53;;;;;;;14.65;11.70;;;;;;;;;;5033838;28;20221;-82
2022/03/29 02:10:21;;;;;;;14.38;11.35;;;;;;;;;;5034272;28;20638;-82
2022/03/29 02:12:51;;;;;;;13.95;11.98;;;;;;;;;;5033707;28;20202;-82
2022/03/29 02:15:20;;;;;;;17.17;12.63;;;;;;;;;;5034055;28;20209;-82
2022/03/29 02:17:49;;;;;;;14.57;11.95;;;;;;;;;;5033346;28;20740;-82
2022/03/29 02:20:17;;;;;;;13.40;11.65;;;;;;;;;;5034132;28;20253;-81
2022/03/29 02:22:44;;;;;;;15.07;13.15;;;;;;;;;;5033606;28;20206;-82
2022/03/29 02:25:12;;;;;;;20.23;13.15;;;;;;;;;;5033639;28;20210;-82
2022/03/29 02:27:41;;;;;;;13.77;12.30;;;;;;;;;;5033710;28;20588;-81
2022/03/29 02:30:12;;;;;;;16.20;12.77;;;;;;;;;;5034058;28;20195;-82
2022/03/29 02:32:41;;;;;;;12.18;10.95;;;;;;;;;;5033442;28;20229;-82
2022/03/29 02:35:09;;;;;;;13.77;12.30;;;;;;;;;;5033536;28;20237;-82
2022/03/29 02:37:37;;;;;;;16.90;12.85;;;;;;;;;;5033536;28;20206;-81
2022/03/29 02:40:06;;;;;;;14.77;12.50;;;;;;;;;;5032858;28;20222;-82
2022/03/29 02:42:33;;;;;;;15.70;12.82;;;;;;;;;;5033189;28;20202;-82
2022/03/29 02:45:01;;;;;;;14.90;12.45;;;;;;;;;;5033050;28;20206;-82
2022/03/29 02:47:30;;;;;;;14.75;12.23;;;;;;;;;;5033634;28;20207;-82
2022/03/29 02:49:57;;;;;;;14.07;11.48;;;;;;;;;;5032895;28;20714;-81
2022/03/29 02:52:25;;;;;;;14.93;12.50;;;;;;;;;;5033655;28;20202;-82
2022/03/29 02:54:52;;;;;;;12.85;11.48;;;;;;;;;;5036905;28;20213;-82
2022/03/29 02:57:19;;;;;;;16.08;13.02;;;;;;;;;;5037252;28;20206;-82
2022/03/29 02:59:46;;;;;;;15.43;12.40;;;;;;;;;;5036795;28;20218;-82
2022/03/29 03:02:14;;;;;;;16.35;13.18;;;;;;;;;;5037253;28;20207;-82
2022/03/29 03:04:42;;;;;;;19.98;15.27;;;;;;;;;;5036777;28;20207;-82
2022/03/29 03:07:09;;;;;;;15.25;13.65;;;;;;;;;;5037193;28;20202;-82
2022/03/29 03:09:37;;;;;;;17.75;15.10;;;;;;;;;;5037027;28;20225;-82
2022/03/29 03:12:05;;;;;;;15.85;13.55;;;;;;;;;;5037305;28;20202;-82
2022/03/29 03:14:32;;;;;;;16.65;13.60;;;;;;;;;;5036530;28;20736;-82
2022/03/29 03:16:59;;;;;;;15.52;12.40;;;;;;;;;;5036863;28;20671;-82
2022/03/29 03:19:26;;;;;;;17.17;15.23;;;;;;;;;;5036360;28;20245;-82
2022/03/29 03:21:55;;;;;;;16.17;12.82;;;;;;;;;;5036268;28;20222;-81
2022/03/29 03:24:22;;;;;;;14.07;12.57;;;;;;;;;;5036313;28;20214;-81
2022/03/29 03:26:49;;;;;;;16.95;14.23;;;;;;;;;;5036898;28;20562;-82
2022/03/29 03:29:17;;;;;;;16.75;13.60;;;;;;;;;;5036539;28;20223;-82
2022/03/29 03:31:44;;;;;;;14.85;11.40;;;;;;;;;;5036299;28;20203;-81
2022/03/29 03:34:11;;;;;;;17.75;12.68;;;;;;;;;;5035982;28;20203;-82
2022/03/29 03:36:38;;;;;;;13.95;12.30;;;;;;;;;;5037001;28;20214;-83
2022/03/29 03:39:07;;;;;;;14.35;12.85;;;;;;;;;;5036479;28;20249;-82
2022/03/29 03:41:37;;;;;;;15.45;13.82;;;;;;;;;;5036853;28;20225;-82
2022/03/29 03:44:04;;;;;;;16.40;14.70;;;;;;;;;;5034946;28;20723;-83
2022/03/29 03:46:31;;;;;;;15.40;13.75;;;;;;;;;;5036889;28;20218;-81
2022/03/29 03:49:00;;;;;;;19.30;15.23;;;;;;;;;;5037196;28;20710;-82
2022/03/29 03:51:27;;;;;;;15.25;13.65;;;;;;;;;;5038345;28;20206;-82
2022/03/29 03:53:55;;;;;;;17.77;14.13;;;;;;;;;;5037249;28;20199;-82
2022/03/29 03:56:23;;;;;;;16.98;14.13;;;;;;;;;;5039933;28;20214;-82
2022/03/29 03:58:51;;;;;;;18.35;15.25;;;;;;;;;;5036957;28;20227;-82
2022/03/29 04:01:18;;;;;;;19.45;15.32;;;;;;;;;;5035731;28;20222;-82
2022/03/29 04:03:45;;;;;;;18.98;15.50;;;;;;;;;;5035298;28;20714;-84
2022/03/29 04:06:13;;;;;;;21.20;15.70;;;;;;;;;;5039233;28;20202;-84
2022/03/29 04:08:40;;;;;;;18.65;15.50;;;;;;;;;;5039281;28;20776;-84
2022/03/29 04:11:07;;;;;;;19.85;16.92;;;;;;;;;;5039652;28;20638;-84
2022/03/29 04:13:36;;;;;;;17.95;15.32;;;;;;;;;;5039300;28;20653;-84
2022/03/29 04:16:05;;;;;;;19.70;17.63;;;;;;;;;;5038583;28;20233;-84
2022/03/29 04:18:32;;;;;;;24.33;18.38;;;;;;;;;;5039196;28;20850;-84
2022/03/29 04:21:01;;;;;;;22.20;17.38;;;;;;;;;;5039648;28;20222;-83
2022/03/29 04:23:28;;;;;;;19.83;16.90;;;;;;;;;;5039069;28;20202;-84
2022/03/29 04:25:57;;;;;;;19.45;16.63;;;;;;;;;;5039419;28;20194;-84
2022/03/29 04:28:25;;;;;;;21.38;16.80;;;;;;;;;;5038852;28;20229;-84
2022/03/29 04:30:55;;;;;;;19.88;16.77;;;;;;;;;;5038879;28;20221;-84
2022/03/29 04:33:22;;;;;;;19.30;15.57;;;;;;;;;;5039080;28;20289;-84
2022/03/29 04:35:49;;;;;;;19.27;16.27;;;;;;;;;;5036801;28;20225;-85
2022/03/29 04:38:17;;;;;;;21.15;18.92;;;;;;;;;;5037377;28;20234;-84
2022/03/29 04:40:44;;;;;;;19.45;15.23;;;;;;;;;;5037866;28;20210;-84
2022/03/29 04:43:12;;;;;;;22.05;17.50;;;;;;;;;;5036394;28;20198;-84
2022/03/29 04:45:39;;;;;;;20.60;17.30;;;;;;;;;;5036988;28;20206;-84
2022/03/29 04:48:09;;;;;;;20.70;16.85;;;;;;;;;;5037580;28;20211;-84
2022/03/29 04:50:37;;;;;;;16.63;14.82;;;;;;;;;;5038252;28;20269;-84
2022/03/29 04:53:04;;;;;;;14.88;13.30;;;;;;;;;;5039168;28;20202;-85
2022/03/29 04:55:31;;;;;;;21.17;15.38;;;;;;;;;;5036978;28;20206;-84
2022/03/29 04:58:00;;;;;;;20.60;16.63;;;;;;;;;;5036789;28;20663;-83
2022/03/29 05:00:28;;;;;;;17.45;15.40;;;;;;;;;;5038358;28;20260;-85
2022/03/29 05:02:55;;;;;;;21.05;16.65;;;;;;;;;;5038375;28;20226;-84
2022/03/29 05:05:24;;;;;;;17.35;15.10;;;;;;;;;;5038492;28;20202;-84
2022/03/29 05:07:51;;;;;;;18.95;16.48;;;;;;;;;;5037900;28;20206;-84
2022/03/29 05:10:18;;;;;;;20.25;17.63;;;;;;;;;;5038734;28;20210;-85
2022/03/29 05:12:47;;;;;;;20.45;17.58;;;;;;;;;;5038412;28;20633;-84
2022/03/29 05:15:16;;;;;;;19.50;16.05;;;;;;;;;;5037367;28;20198;-84
2022/03/29 05:17:44;;;;;;;17.98;15.45;;;;;;;;;;5038939;28;20655;-84
2022/03/29 05:20:13;;;;;;;17.90;15.93;;;;;;;;;;5038704;28;20213;-85
2022/03/29 05:22:46;;;;;;;14.65;12.43;;;;;;;;;;5037998;28;20228;-84
2022/03/29 05:25:15;;;;;;;15.80;14.07;;;;;;;;;;5037747;28;20221;-84
2022/03/29 05:27:42;;;;;;;20.58;16.25;;;;;;;;;;5037075;28;20202;-85
2022/03/29 05:30:12;;;;;;;19.92;16.02;;;;;;;;;;5038146;28;20210;-84
2022/03/29 05:32:39;;;;;;;22.08;18.27;;;;;;;;;;5037082;28;20709;-85
2022/03/29 05:35:08;;;;;;;19.00;15.52;;;;;;;;;;5037667;28;20210;-84
2022/03/29 05:37:36;;;;;;;16.65;14.27;;;;;;;;;;5037274;28;20213;-84
2022/03/29 05:40:07;;;;;;;16.67;14.98;;;;;;;;;;5036940;28;20210;-84
2022/03/29 05:42:38;;;;;;;20.70;17.23;;;;;;;;;;5037485;28;20218;-84
2022/03/29 05:45:08;;;;;;;20.35;17.95;;;;;;;;;;5036915;28;20242;-83
2022/03/29 05:50:21;;;;;;;20.13;18.02;;;;;;;;;;5033941;28;20289;-77
2022/03/29 05:52:48;;;;;;;20.20;16.73;;;;;;;;;;5032708;28;20620;-77
2022/03/29 05:55:17;;;;;;;19.27;16.08;;;;;;;;;;5033010;28;20213;-77
2022/03/29 05:57:44;;;;;;;22.23;16.95;;;;;;;;;;5032528;28;20264;-78
2022/03/29 06:00:13;;;;;;;20.73;18.13;;;;;;;;;;5033446;28;20214;-77
2022/03/29 06:02:41;;;;;;;20.27;17.48;;;;;;;;;;5032780;28;20237;-77
2022/03/29 06:05:09;;;;;;;17.40;13.65;;;;;;;;;;5032854;28;20198;-78
2022/03/29 06:07:37;;;;;;;18.50;15.38;;;;;;;;;;5032555;28;20654;-77
2022/03/29 06:10:05;;;;;;;18.05;15.98;;;;;;;;;;5032752;28;20207;-78
2022/03/29 06:12:36;;;;;;;17.02;14.68;;;;;;;;;;5031996;28;20244;-78
2022/03/29 06:15:04;;;;;;;17.08;14.70;;;;;;;;;;5032893;28;20236;-78
2022/03/29 06:17:32;;;;;;;20.08;17.08;;;;;;;;;;5032468;28;20888;-77
2022/03/29 06:20:01;;;;;;;18.63;15.48;;;;;;;;;;5031883;28;20655;-76
2022/03/29 06:22:29;;;;;;;20.08;17.55;;;;;;;;;;5032716;28;20316;-78
2022/03/29 06:24:58;;;;;;;19.10;16.92;;;;;;;;;;5034237;28;20206;-78
2022/03/29 06:27:25;;;;;;;19.50;16.15;;;;;;;;;;5037221;28;20274;-78
2022/03/29 06:29:56;;;;;;;19.58;15.80;;;;;;;;;;5037619;28;20222;-78
2022/03/29 06:32:24;;;;;;;19.38;15.60;;;;;;;;;;5036143;28;20202;-77
2022/03/29 06:34:51;;;;;;;20.58;16.70;;;;;;;;;;5035650;28;20268;-77
2022/03/29 06:37:18;;;;;;;19.05;16.70;;;;;;;;;;5041862;28;20214;-77
2022/03/29 06:39:45;;;;;;;20.60;17.52;;;;;;;;;;5046807;28;20218;-77
2022/03/29 06:42:18;;;;;;;20.75;15.85;;;;;;;;;;5045369;28;20232;-77
2022/03/29 06:44:45;;;;;;;19.70;16.55;;;;;;;;;;5047105;28;20263;-76
2022/03/29 06:47:14;;;;;;;21.05;16.90;;;;;;;;;;5046273;28;20202;-77
2022/03/29 06:49:42;;;;;;;17.33;15.40;;;;;;;;;;5041645;28;20647;-77
2022/03/29 06:52:10;;;;;;;19.30;15.63;;;;;;;;;;5035927;28;20322;-76
2022/03/29 06:54:38;;;;;;;19.67;16.00;;;;;;;;;;5036184;28;20740;-77
2022/03/29 06:57:06;;;;;;;20.45;15.82;;;;;;;;;;5036304;28;20289;-77
2022/03/29 06:59:33;;;;;;;18.23;15.77;;;;;;;;;;5035839;28;20749;-77
2022/03/29 07:02:00;;;;;;;19.10;17.05;;;;;;;;;;5034886;28;20210;-76
2022/03/29 07:04:29;;;;;;;20.30;17.27;;;;;;;;;;5035680;28;20733;-76
2022/03/29 07:06:56;;;;;;;20.10;16.92;;;;;;;;;;5035295;28;20627;-77
2022/03/29 07:12:22;;;;;;;22.38;17.45;;;;;;;;;;5036047;28;20201;-77
2022/03/29 07:14:50;;;;;;;17.77;15.55;;;;;;;;;;5036061;28;20210;-78
2022/03/29 07:17:17;;;;;;;20.23;16.92;;;;;;;;;;5034861;28;20210;-77
2022/03/29 07:19:46;;;;;;;21.27;17.50;;;;;;;;;;5034457;28;20253;-76
2022/03/29 07:22:13;;;;;;;19.20;15.88;;;;;;;;;;5034649;28;20678;-78
2022/03/29 07:24:40;;;;;;;18.65;16.15;;;;;;;;;;5036727;28;20207;-78
2022/03/29 07:27:08;;;;;;;23.35;18.50;;;;;;;;;;5038270;28;20285;-78
2022/03/29 07:29:35;;;;;;;21.85;17.92;;;;;;;;;;5037540;28;20242;-78
2022/03/29 07:32:03;;;;;;;19.33;16.50;;;;;;;;;;5038390;28;20296;-78
2022/03/29 07:34:35;;;;;;;22.95;19.08;;;;;;;;;;5036999;28;20198;-77
2022/03/29 07:37:05;;;;;;;21.52;17.25;;;;;;;;;;5036937;28;20245;-77
2022/03/29 07:39:32;;;;;;;20.08;16.48;;;;;;;;;;5035126;28;20226;-78
2022/03/29 07:42:00;;;;;;;25.00;18.08;;;;;;;;;;5034980;28;20206;-76
2022/03/29 07:44:27;;;;;;;22.27;18.50;;;;;;;;;;5034567;28;20651;-77
2022/03/29 07:46:54;;;;;;;21.08;17.50;;;;;;;;;;5034902;28;20276;-77
2022/03/29 07:49:21;;;;;;;22.15;17.20;;;;;;;;;;5034577;28;20226;-77
2022/03/29 07:51:48;;;;;;;21.48;17.25;;;;;;;;;;5034772;28;20206;-77
2022/03/29 07:54:18;;;;;;;21.48;16.80;;;;;;;;;;5036206;28;20203;-78
2022/03/29 07:56:46;;;;;;;19.35;15.40;;;;;;;;;;5036054;28;20209;-78
2022/03/29 07:59:14;;;;;;;22.92;18.00;;;;;;;;;;5035697;28;20603;-77
2022/03/29 08:01:41;;;;;;;22.08;17.63;;;;;;;;;;5036009;28;20202;-77
2022/03/29 08:04:10;;;;;;;23.60;18.13;;;;;;;;;;5035961;28;20226;-77
2022/03/29 08:06:37;;;;;;;22.77;17.50;;;;;;;;;;5035427;28;20230;-77
2022/03/29 08:09:05;;;;;;;22.35;19.00;;;;;;;;;;5035203;28;20222;-78
2022/03/29 08:11:36;;;;;;;25.55;17.83;;;;;;;;;;5035139;28;20283;-78
2022/03/29 08:14:03;;;;;;;21.50;17.20;;;;;;;;;;5035482;28;20682;-77
2022/03/29 08:16:33;;;;;;;21.70;18.40;;;;;;;;;;5035641;28;20271;-77
2022/03/29 08:19:00;;;;;;;23.60;18.13;;;;;;;;;;5035912;28;20253;-77
2022/03/29 08:24:12;;;;;;;23.38;17.90;;;;;;;;;;5034779;28;20300;-78
2022/03/29 08:26:41;;;;;;;22.05;17.85;;;;;;;;;;5035942;28;20301;-78
2022/03/29 08:29:09;;;;;;;19.83;17.42;;;;;;;;;;5035423;28;20225;-77
2022/03/29 08:31:36;;;;;;;21.05;16.52;;;;;;;;;;5035688;28;20206;-77
2022/03/29 08:34:04;;;;;;;17.55;15.63;;;;;;;;;;5035025;28;20223;-78
2022/03/29 08:36:32;;;;;;;21.67;16.98;;;;;;;;;;5035621;28;20268;-78
2022/03/29 08:38:59;;;;;;;22.23;18.50;;;;;;;;;;5034847;28;20245;-77
2022/03/29 08:41:27;;;;;;;20.38;18.08;;;;;;;;;;5035629;28;20233;-78
2022/03/29 08:43:55;;;;;;;23.02;18.98;;;;;;;;;;5034947;28;20226;-78
2022/03/29 08:46:23;;;;;;;18.77;15.85;;;;;;;;;;5035362;28;20206;-77
2022/03/29 08:48:51;;;;;;;20.27;17.35;;;;;;;;;;5034821;28;20230;-78
2022/03/29 08:51:18;;;;;;;21.67;17.27;;;;;;;;;;5032976;28;20202;-77
2022/03/29 08:53:48;;;;;;;20.95;15.68;;;;;;;;;;5034887;28;20588;-77
2022/03/29 08:56:16;;;;;;;19.88;17.50;;;;;;;;;;5035520;28;20206;-77
2022/03/29 08:58:43;;;;;;;21.58;17.48;;;;;;;;;;5036190;28;20279;-77
2022/03/29 09:01:12;;;;;;;21.75;17.85;;;;;;;;;;5035224;28;20379;-78
2022/03/29 09:03:39;;;;;;;21.92;17.05;;;;;;;;;;5034346;28;20226;-78
2022/03/29 09:06:08;;;;;;;25.92;19.48;;;;;;;;;;5035311;28;20572;-77
2022/03/29 09:08:45;;;;;;;21.15;17.63;;;;;;;;;;5035224;28;20721;-77
2022/03/29 09:11:21;;;;;;;24.73;18.17;;;;;;;;;;5110721;27;20632;-77
2022/03/29 09:13:49;;;;;;;22.42;17.52;;;;;;;;;;5110426;28;20249;-77
2022/03/29 09:16:30;;;;;;;19.60;16.75;;;;;;;;;;5110445;28;20336;-77
2022/03/29 09:18:58;;;;;;;20.80;17.60;;;;;;;;;;5110516;28;20272;-77
2022/03/29 09:21:25;;;;;;;20.25;17.92;;;;;;;;;;5110884;28;20582;-77
2022/03/29 09:24:08;;;;;;;20.60;17.08;;;;;;;;;;5110709;28;20200;-77
2022/03/29 09:26:39;;;;;;;21.85;17.17;;;;;;;;;;5111592;28;20605;-77
2022/03/29 09:29:18;;;;;;;23.95;19.13;;;;;;;;;;5110829;28;20223;-77
2022/03/29 09:32:02;;;;;;;21.10;18.52;;;;;;;;;;5111044;28;20191;-77
2022/03/29 09:34:29;;;;;;;22.52;17.35;;;;;;;;;;5111213;28;20741;-77
2022/03/29 09:36:57;;;;;;;20.98;17.33;;;;;;;;;;5110819;28;20200;-77
2022/03/29 09:39:37;;;;;;;19.73;17.33;;;;;;;;;;5111103;28;20289;-77
2022/03/29 09:42:10;;;;;;;16.48;14.23;;;;;;;;;;5110708;28;20211;-77
2022/03/29 09:44:41;;;;;;;18.95;16.95;;;;;;;;;;5111115;28;20289;-77
2022/03/29 09:47:11;;;;;;;20.13;16.73;;;;;;;;;;5111426;28;20214;-77
2022/03/29 09:49:57;;;;;;;22.10;18.55;;;;;;;;;;5111119;28;20224;-77
2022/03/29 09:52:26;;;;;;;18.60;16.48;;;;;;;;;;5110557;28;20198;-78
2022/03/29 09:55:15;;;;;;;18.70;16.70;;;;;;;;;;5110136;28;20203;-78
2022/03/29 09:57:48;;;;;;;14.40;12.88;;;;;;;;;;5110238;28;20566;-78
2022/03/29 10:00:18;;;;;;;17.42;15.07;;;;;;;;;;5110993;28;20228;-77
2022/03/29 10:02:46;;;;;;;14.85;13.00;;;;;;;;;;5110645;28;20200;-77
2022/03/29 10:05:16;;;;;;;16.30;14.60;;;;;;;;;;5110000;28;20627;-78
2022/03/29 10:07:46;;;;;;;18.65;15.70;;;;;;;;;;5110497;28;20218;-77
2022/03/29 10:10:14;;;;;;;17.02;15.23;;;;;;;;;;5109996;28;20707;-77
2022/03/29 10:12:41;;;;;;;16.05;13.98;;;;;;;;;;5110740;28;20203;-78
2022/03/29 10:15:12;;;;;;;16.88;14.95;;;;;;;;;;5111070;28;20207;-78
2022/03/29 10:17:41;;;;;;;16.13;14.30;;;;;;;;;;5111763;28;20261;-77
2022/03/29 10:20:10;;;;;;;14.57;13.07;;;;;;;;;;5110288;28;20207;-78
2022/03/29 10:22:40;;;;;;;16.30;14.55;;;;;;;;;;5096652;28;20223;-78
2022/03/29 10:25:08;;;;;;;17.63;15.20;;;;;;;;;;5097791;28;20235;-78
2022/03/29 10:27:36;;;;;;;16.15;14.10;;;;;;;;;;5098322;28;20226;-78
2022/03/29 10:30:05;;;;;;;19.13;17.13;;;;;;;;;;5099206;28;20244;-78
2022/03/29 10:32:33;;;;;;;17.60;15.77;;;;;;;;;;5099120;28;20211;-78
2022/03/29 10:35:08;;;;;;;18.42;14.98;;;;;;;;;;5096601;28;20200;-78
2022/03/29 10:37:54;;;;;;;16.42;14.40;;;;;;;;;;5098006;28;20679;-78
2022/03/29 10:40:39;;;;;;;20.52;15.82;;;;;;;;;;5097622;28;20207;-78
2022/03/29 10:43:28;;;;;;;17.60;15.80;;;;;;;;;;5097535;28;20200;-78
2022/03/29 10:45:55;;;;;;;18.80;16.85;;;;;;;;;;5097455;28;20294;-78
2022/03/29 10:48:24;;;;;;;12.45;11.02;;;;;;;;;;5096674;28;20250;-78
2022/03/29 10:51:01;;;;;;;16.42;14.73;;;;;;;;;;5095864;28;20227;-78
2022/03/29 10:53:33;;;;;;;26.80;15.82;;;;;;;;;;5096921;28;20211;-78
2022/03/29 10:56:19;;;;;;;17.42;15.63;;;;;;;;;;5097151;28;20416;-79
2022/03/29 10:59:11;;;;;;;19.33;15.77;;;;;;;;;;5096392;28;20224;-79
2022/03/29 11:01:40;;;;;;;20.15;17.33;;;;;;;;;;5096090;28;20684;-78
2022/03/29 11:04:20;;;;;;;19.25;17.23;;;;;;;;;;5098372;28;20196;-78
2022/03/29 11:07:12;;;;;;;17.77;15.70;;;;;;;;;;5098183;28;20208;-78
2022/03/29 11:09:44;;;;;;;20.88;17.75;;;;;;;;;;5098536;28;20220;-78
2022/03/29 11:12:46;;;;;;;18.20;16.30;;;;;;;;;;5097628;28;20594;-78
2022/03/29 11:15:46;;;;;;;14.70;13.25;;;;;;;;;;5098482;28;20287;-78
2022/03/29 11:18:50;;;;;;;17.15;14.65;;;;;;;;;;5097503;28;20224;-78
2022/03/29 11:21:37;;;;;;;16.60;14.73;;;;;;;;;;5091991;28;20242;-79
2022/03/29 11:24:08;;;;;;;18.58;16.13;;;;;;;;;;5097011;28;20253;-79
2022/03/29 11:26:37;;;;;;;17.23;15.38;;;;;;;;;;5097509;28;20590;-78
2022/03/29 11:29:08;;;;;;;12.98;11.27;;;;;;;;;;5097893;28;20224;-79
2022/03/29 11:31:38;;;;;;;12.85;11.18;;;;;;;;;;5097604;28;20331;-78
2022/03/29 11:34:09;;;;;;;14.32;12.85;;;;;;;;;;5096377;28;20204;-78
2022/03/29 11:36:39;;;;;;;16.30;14.68;;;;;;;;;;5096991;28;20227;-78
2022/03/29 11:39:22;;;;;;;18.20;16.23;;;;;;;;;;5096798;28;20221;-78
2022/03/29 11:41:51;;;;;;;13.85;12.50;;;;;;;;;;5097382;28;20227;-78
2022/03/29 11:44:18;;;;;;;15.63;12.90;;;;;;;;;;5095892;28;20205;-79
2022/03/29 11:46:50;;;;;;;13.23;11.75;;;;;;;;;;5095911;28;20465;-79
2022/03/29 11:49:17;;;;;;;14.32;12.82;;;;;;;;;;5097135;28;20295;-79
2022/03/29 11:52:08;;;;;;;14.75;13.25;;;;;;;;;;5095018;28;20224;-78
2022/03/29 11:54:45;;;;;;;14.25;12.05;;;;;;;;;;5095598;28;20203;-78
2022/03/29 11:57:22;;;;;;;14.98;11.82;;;;;;;;;;5095976;28;20225;-79
2022/03/29 11:59:50;;;;;;;15.05;13.43;;;;;;;;;;5095620;28;20216;-79
2022/03/29 12:02:19;;;;;;;14.98;13.38;;;;;;;;;;5096144;28;20200;-78
2022/03/29 12:04:48;;;;;;;14.93;12.73;;;;;;;;;;5097895;28;20210;-79
2022/03/29 12:07:17;;;;;;;13.65;12.00;;;;;;;;;;5096722;28;20242;-79
2022/03/29 12:09:48;;;;;;;15.13;12.18;;;;;;;;;;5095323;28;20285;-79
2022/03/29 12:12:16;;;;;;;14.18;12.25;;;;;;;;;;5096749;28;20598;-79
2022/03/29 12:14:43;;;;;;;13.88;11.50;;;;;;;;;;5097271;28;20625;-79
2022/03/29 12:17:12;;;;;;;13.68;12.27;;;;;;;;;;5095250;28;20204;-79
2022/03/29 12:19:41;;;;;;;12.00;10.73;;;;;;;;;;5097401;28;20630;-79
2022/03/29 12:22:11;;;;;;;12.70;11.23;;;;;;;;;;5095945;28;20203;-79
2022/03/29 12:24:43;;;;;;;13.75;11.02;;;;;;;;;;5096408;28;20751;-78
2022/03/29 12:27:13;;;;;;;12.57;10.93;;;;;;;;;;5096801;28;20204;-79
2022/03/29 12:29:43;;;;;;;11.65;10.45;;;;;;;;;;5097712;28;20212;-78
2022/03/29 12:32:10;;;;;;;12.23;10.55;;;;;;;;;;5097659;28;20244;-78
2022/03/29 12:34:38;;;;;;;10.65;9.60;;;;;;;;;;5097710;28;20219;-78
2022/03/29 12:37:13;;;;;;;12.85;10.30;;;;;;;;;;5097051;28;20222;-78
2022/03/29 12:39:44;;;;;;;10.57;9.57;;;;;;;;;;5096604;28;20212;-78
2022/03/29 12:42:13;;;;;;;10.45;9.35;;;;;;;;;;5096218;28;20200;-79
2022/03/29 12:44:46;;;;;;;11.10;10.00;;;;;;;;;;5096297;28;20197;-78
2022/03/29 12:47:15;;;;;;;10.23;8.90;;;;;;;;;;5096004;28;20200;-78
2022/03/29 12:49:43;;;;;;;9.02;8.13;;;;;;;;;;5095673;28;20219;-78
2022/03/29 12:52:13;;;;;;;9.25;7.75;;;;;;;;;;5094930;28;20287;-78
2022/03/29 12:54:45;;;;;;;10.05;8.40;;;;;;;;;;5095932;28;20196;-80
2022/03/29 12:57:14;;;;;;;10.90;9.40;;;;;;;;;;5096183;28;20679;-78
2022/03/29 12:59:45;;;;;;;8.55;7.30;;;;;;;;;;5094169;28;20220;-78
2022/03/29 13:02:21;;;;;;;8.40;7.60;;;;;;;;;;5094822;28;20232;-78
2022/03/29 13:04:51;;;;;;;8.30;7.47;;;;;;;;;;5095125;28;20192;-78
2022/03/29 13:07:44;;;;;;;8.02;6.72;;;;;;;;;;5093919;28;20204;-78
2022/03/29 13:10:16;;;;;;;7.82;7.03;;;;;;;;;;5095477;28;20295;-78
2022/03/29 13:12:58;;;;;;;6.97;6.28;;;;;;;;;;5095129;28;20314;-78
2022/03/29 13:15:47;;;;;;;12.00;7.35;;;;;;;;;;5095671;28;20200;-78
2022/03/29 13:18:35;;;;;;;5.70;5.18;;;;;;;;;;5095918;28;20220;-78
2022/03/29 13:21:11;;;;;;;6.28;5.70;;;;;;;;;;5095814;28;20203;-78
2022/03/29 13:23:41;;;;;;;8.05;7.25;;;;;;;;;;5095537;28;20199;-78
2022/03/29 13:26:12;;;;;;;6.43;5.80;;;;;;;;;;5095940;28;20207;-79
2022/03/29 13:28:41;;;;;;;6.25;5.65;;;;;;;;;;5096411;28;20228;-79
2022/03/29 13:31:10;;;;;;;7.55;6.85;;;;;;;;;;5096451;28;20246;-77
2022/03/29 13:33:38;;;;;;;8.35;7.55;;;;;;;;;;5096188;28;20584;-78
2022/03/29 13:36:09;;;;;;;6.72;5.88;;;;;;;;;;5095892;28;20270;-78
2022/03/29 13:38:38;;;;;;;7.68;6.88;;;;;;;;;;5093045;28;20220;-77
2022/03/29 13:41:06;;;;;;;7.28;6.57;;;;;;;;;;5094400;28;20204;-78
2022/03/29 13:43:35;;;;;;;8.73;7.65;;;;;;;;;;5096080;28;20208;-78
2022/03/29 13:46:03;;;;;;;11.88;8.63;;;;;;;;;;5097265;28;20201;-78
2022/03/29 13:48:30;;;;;;;9.45;8.48;;;;;;;;;;5096558;28;20231;-77
2022/03/29 13:50:58;;;;;;;9.43;8.50;;;;;;;;;;5095647;28;20208;-78
2022/03/29 13:53:25;;;;;;;7.47;6.78;;;;;;;;;;5096141;28;20220;-78
2022/03/29 13:55:53;;;;;;;9.18;8.32;;;;;;;;;;5095205;28;20196;-77
2022/03/29 13:58:20;;;;;;;9.30;8.13;;;;;;;;;;5097313;28;20225;-77
2022/03/29 14:00:49;;;;;;;8.32;7.53;;;;;;;;;;5100067;28;20204;-78
2022/03/29 14:03:17;;;;;;;10.85;7.55;;;;;;;;;;5099621;28;20197;-78
2022/03/29 14:05:46;;;;;;;8.80;7.80;;;;;;;;;;5100621;28;20200;-78
2022/03/29 14:08:15;;;;;;;8.18;7.15;;;;;;;;;;5098805;28;20212;-78
2022/03/29 14:10:43;;;;;;;6.90;6.20;;;;;;;;;;5099151;28;20208;-78
2022/03/29 14:13:11;;;;;;;7.82;6.43;;;;;;;;;;5099096;28;20637;-78
2022/03/29 14:15:41;;;;;;;7.00;5.40;;;;;;;;;;5098786;28;20205;-78
2022/03/29 14:18:10;;;;;;;10.20;5.82;;;;;;;;;;5098333;28;20246;-78
2022/03/29 14:20:39;;;;;;;7.93;6.18;;;;;;;;;;5098999;28;20207;-78
2022/03/29 14:23:11;;;;;;;7.50;6.07;;;;;;;;;;5099436;28;20287;-78
2022/03/29 14:25:39;;;;;;;7.00;6.32;;;;;;;;;;5097875;28;20204;-78
2022/03/29 14:28:08;;;;;;;5.43;4.93;;;;;;;;;;5099840;28;20246;-78
2022/03/29 14:30:37;;;;;;;4.43;4.05;;;;;;;;;;5107224;28;20222;-78
2022/03/29 14:33:05;;;;;;;5.28;4.78;;;;;;;;;;5106704;28;20227;-77
2022/03/29 14:35:34;;;;;;;5.50;4.72;;;;;;;;;;5105589;28;20204;-78
2022/03/29 14:38:02;;;;;;;7.18;4.57;;;;;;;;;;5101338;28;20220;-78
2022/03/29 14:40:29;;;;;;;9.35;7.05;;;;;;;;;;5097778;28;20680;-78
2022/03/29 14:42:58;;;;;;;6.20;5.47;;;;;;;;;;5100291;28;20688;-77
2022/03/29 14:45:26;;;;;;;6.00;5.35;;;;;;;;;;5098317;28;20226;-78
2022/03/29 14:47:53;;;;;;;5.75;5.25;;;;;;;;;;5098364;28;20216;-78
2022/03/29 14:50:22;;;;;;;6.35;5.80;;;;;;;;;;5097729;28;20273;-79